Terminal Aerodrome Forecast
Issued by NWS

Home | Current Version | Previous Version | Text Only | Print | Product List | Glossary Off
Versions: 1 2 3 4 5 6 7 8 9 10 11 12 13 14 15 16

092
FTUS42 KMHX 270526
TAFISO
TAF
KISO 270526Z 2706/2806 VRB03KT P6SM BKN070
     FM271200 VRB03KT P6SM VCSH BKN050
     FM271500 VRB04KT P6SM VCSH BKN050
     FM271800 13005KT 6SM -SHRA OVC050
     FM280000 VRB04KT P6SM VCSH BKN050
      AMD LTD TO CLD VIS AND WIND=

USA.gov is the U.S. government's official web portal to all federal, state and local government web resources and services.